Schefferville, Canada
Current Conditions -  °F | °C
As of 10:00 AM on Thursday 23 Oct 2014 (Local Time) from CYKL Reporting Station
Broken Clouds Broken Clouds  
Wind Chill:   Ceiling: 13000
Heat Index:   Visibility: 9mi
Dew Point: -6°   Wind: 17mph
Humidity: 45%   Direction: 270°W
Pressure: 30.12"   Gusts: 35mph
Location:  54.8°N, 66.83°W
Report Text: CYKL 231400Z AUTO 27015G30KT 230V300 9SM FEW090 BKN130 05/M06 A3012 RMK PRESFR SLP228
Loading
Personal Weather Stations






























Interactive Weather Map
Tropical Storm Tracking
New forecast layout! Learn more

10-Day Weather Forecast

Advertisements
Track Severe Weather on mobile